Time,TemperatureF,DewpointF,PressureIn,WindDirection,WindDirectionDegrees,WindSpeedMPH,WindSpeedGustMPH,Humidity,HourlyPrecipIn,Conditions,Clouds,dailyrainin,SoftwareType,DateUTC
2015-05-24 00:10:00,63.0,51.0,30.28,NNW,339,0.0,0.0,64,0.00,,,0.00,weatherlink.com 1.10,2015-05-24 04:10:00,
2015-05-24 00:25:00,62.3,51.0,30.28,North,357,0.0,0.0,66,0.00,,,0.00,weatherlink.com 1.10,2015-05-24 04:25:00,
2015-05-24 00:40:00,61.8,51.0,30.28,North,356,0.0,0.0,67,0.00,,,0.00,weatherlink.com 1.10,2015-05-24 04:40:00,
2015-05-24 00:55:00,61.4,51.0,30.27,North,356,0.0,0.0,68,0.00,,,0.00,weatherlink.com 1.10,2015-05-24 04:55:00,
2015-05-24 01:10:00,61.2,50.0,30.28,North,357,0.0,0.0,68,0.00,,,0.00,weatherlink.com 1.10,2015-05-24 05:10:00,
2015-05-24 01:25:00,61.0,50.0,30.28,North,356,0.0,0.0,68,0.00,,,0.00,weatherlink.com 1.10,2015-05-24 05:25:00,
2015-05-24 01:41:00,61.5,51.0,30.27,NNW,346,0.0,0.0,68,0.00,,,0.00,weatherlink.com 1.10,2015-05-24 05:41:00,
2015-05-24 01:55:00,61.1,51.0,30.27,NNW,347,0.0,0.0,69,0.00,,,0.00,weatherlink.com 1.10,2015-05-24 05:55:00,
2015-05-24 02:10:00,60.2,51.0,30.27,NNW,347,0.0,0.0,71,0.00,,,0.00,weatherlink.com 1.10,2015-05-24 06:10:00,
2015-05-24 02:26:00,59.6,51.0,30.27,NNW,347,0.0,0.0,72,0.00,,,0.00,weatherlink.com 1.10,2015-05-24 06:26:00,
2015-05-24 02:41:00,59.0,50.0,30.27,NNW,347,0.0,0.0,72,0.00,,,0.00,weatherlink.com 1.10,2015-05-24 06:41:00,
2015-05-24 02:56:00,58.9,51.0,30.27,NNW,344,0.0,0.0,74,0.00,,,0.00,weatherlink.com 1.10,2015-05-24 06:56:00,
2015-05-24 03:11:00,59.1,50.0,30.27,NNW,342,0.0,0.0,73,0.00,,,0.00,weatherlink.com 1.10,2015-05-24 07:11:00,
2015-05-24 03:26:00,58.9,51.0,30.27,NNW,343,0.0,0.0,74,0.00,,,0.00,weatherlink.com 1.10,2015-05-24 07:26:00,
2015-05-24 03:41:00,58.6,51.0,30.27,NNW,344,0.0,0.0,75,0.00,,,0.00,weatherlink.com 1.10,2015-05-24 07:41:00,
2015-05-24 03:56:00,58.4,51.0,30.27,NNW,344,0.0,0.0,75,0.00,,,0.00,weatherlink.com 1.10,2015-05-24 07:56:00,
2015-05-24 04:11:00,58.0,50.0,30.27,NNW,345,0.0,0.0,76,0.00,,,0.00,weatherlink.com 1.10,2015-05-24 08:11:00,
2015-05-24 04:26:00,57.9,51.0,30.27,NNW,344,0.0,0.0,77,0.00,,,0.00,weatherlink.com 1.10,2015-05-24 08:26:00,
2015-05-24 04:41:00,57.9,51.0,30.27,NNW,345,0.0,0.0,78,0.00,,,0.00,weatherlink.com 1.10,2015-05-24 08:41:00,
2015-05-24 04:56:00,57.8,51.0,30.27,NNW,344,0.0,0.0,78,0.00,,,0.00,weatherlink.com 1.10,2015-05-24 08:56:00,
2015-05-24 05:11:00,57.7,51.0,30.28,NNW,344,0.0,0.0,79,0.00,,,0.00,weatherlink.com 1.10,2015-05-24 09:11:00,
2015-05-24 05:26:00,57.5,51.0,30.27,NNW,344,0.0,0.0,79,0.00,,,0.00,weatherlink.com 1.10,2015-05-24 09:26:00,
2015-05-24 05:41:00,57.3,51.0,30.27,NNW,344,0.0,0.0,80,0.00,,,0.00,weatherlink.com 1.10,2015-05-24 09:41:00,
2015-05-24 05:56:00,57.2,51.0,30.28,NNW,344,0.0,0.0,81,0.00,,,0.00,weatherlink.com 1.10,2015-05-24 09:56:00,
2015-05-24 06:11:00,56.9,51.0,30.28,NNW,344,0.0,0.0,81,0.00,,,0.00,weatherlink.com 1.10,2015-05-24 10:11:00,
2015-05-24 06:26:00,56.6,51.0,30.28,NNW,344,0.0,0.0,82,0.00,,,0.00,weatherlink.com 1.10,2015-05-24 10:26:00,
2015-05-24 06:41:00,56.7,52.0,30.28,NNW,345,0.0,0.0,83,0.00,,,0.00,weatherlink.com 1.10,2015-05-24 10:41:00,
2015-05-24 06:56:00,57.1,52.0,30.28,NNW,344,0.0,0.0,83,0.00,,,0.00,weatherlink.com 1.10,2015-05-24 10:56:00,
2015-05-24 07:11:00,57.7,53.0,30.29,NNW,344,0.0,0.0,83,0.00,,,0.00,weatherlink.com 1.10,2015-05-24 11:11:00,
2015-05-24 07:26:00,58.6,53.0,30.29,NNW,344,0.0,0.0,82,0.00,,,0.00,weatherlink.com 1.10,2015-05-24 11:26:00,
2015-05-24 07:41:00,59.7,54.0,30.29,NNW,344,0.0,0.0,80,0.00,,,0.00,weatherlink.com 1.10,2015-05-24 11:41:00,
2015-05-24 07:56:00,63.4,55.0,30.30,NNW,344,0.0,0.0,74,0.00,,,0.00,weatherlink.com 1.10,2015-05-24 11:56:00,
2015-05-24 08:11:00,66.8,55.0,30.29,ESE,113,0.0,0.0,67,0.00,,,0.00,weatherlink.com 1.10,2015-05-24 12:11:00,
2015-05-24 08:26:00,68.5,56.0,30.30,SE,124,0.0,0.0,64,0.00,,,0.00,weatherlink.com 1.10,2015-05-24 12:26:00,
2015-05-24 08:41:00,69.7,56.0,30.29,South,169,0.0,0.0,63,0.00,,,0.00,weatherlink.com 1.10,2015-05-24 12:41:00,
2015-05-24 08:56:00,69.7,56.0,30.29,SW,235,1.0,3.0,61,0.00,,,0.00,weatherlink.com 1.10,2015-05-24 12:56:00,
2015-05-24 09:11:00,70.5,56.0,30.29,SE,139,0.0,2.0,61,0.00,,,0.00,weatherlink.com 1.10,2015-05-24 13:11:00,
2015-05-24 09:26:00,71.7,57.0,30.29,SW,223,1.0,3.0,60,0.00,,,0.00,weatherlink.com 1.10,2015-05-24 13:26:00,
2015-05-24 09:41:00,72.0,57.0,30.29,WSW,239,0.0,3.0,59,0.00,,,0.00,weatherlink.com 1.10,2015-05-24 13:41:00,
2015-05-24 10:11:00,73.8,57.0,30.29,WSW,238,0.0,2.0,57,0.00,,,0.00,weatherlink.com 1.10,2015-05-24 14:11:00,
2015-05-24 10:27:00,75.7,58.0,30.28,WSW,246,2.0,6.0,55,0.00,,,0.00,weatherlink.com 1.10,2015-05-24 14:27:00,
2015-05-24 10:42:00,77.4,58.0,30.28,WSW,242,2.0,6.0,52,0.00,,,0.00,weatherlink.com 1.10,2015-05-24 14:42:00,
2015-05-24 10:57:00,78.3,59.0,30.28,West,271,2.0,5.0,52,0.00,,,0.00,weatherlink.com 1.10,2015-05-24 14:57:00,
2015-05-24 11:12:00,78.2,57.0,30.27,SSW,212,5.0,9.0,48,0.00,,,0.00,weatherlink.com 1.10,2015-05-24 15:12:00,
2015-05-24 11:27:00,78.5,57.0,30.27,SW,224,2.0,6.0,48,0.00,,,0.00,weatherlink.com 1.10,2015-05-24 15:27:00,
2015-05-24 11:42:00,79.1,58.0,30.27,WSW,245,8.0,9.0,48,0.00,,,0.00,weatherlink.com 1.10,2015-05-24 15:42:00,
2015-05-24 11:57:00,79.7,57.0,30.26,South,191,4.0,9.0,46,0.00,,,0.00,weatherlink.com 1.10,2015-05-24 15:57:00,
2015-05-24 12:12:00,80.1,58.0,30.25,SSW,198,5.0,5.0,47,0.00,,,0.00,weatherlink.com 1.10,2015-05-24 16:12:00,
2015-05-24 12:27:00,80.5,58.0,30.25,SW,224,2.0,8.0,46,0.00,,,0.00,weatherlink.com 1.10,2015-05-24 16:27:00,
2015-05-24 12:42:00,80.8,58.0,30.25,WSW,253,3.0,9.0,46,0.00,,,0.00,weatherlink.com 1.10,2015-05-24 16:42:00,
2015-05-24 12:57:00,81.7,59.0,30.24,SSE,157,3.0,11.0,47,0.00,,,0.00,weatherlink.com 1.10,2015-05-24 16:57:00,
2015-05-24 13:12:00,83.2,59.0,30.23,SSE,159,1.0,6.0,44,0.00,,,0.00,weatherlink.com 1.10,2015-05-24 17:12:00,
2015-05-24 13:27:00,83.5,59.0,30.22,SW,231,4.0,7.0,44,0.00,,,0.00,weatherlink.com 1.10,2015-05-24 17:27:00,
2015-05-24 13:42:00,84.0,60.0,30.22,WSW,253,6.0,6.0,44,0.00,,,0.00,weatherlink.com 1.10,2015-05-24 17:42:00,
2015-05-24 13:57:00,84.0,59.0,30.21,SW,219,4.0,10.0,43,0.00,,,0.00,weatherlink.com 1.10,2015-05-24 17:57:00,
2015-05-24 14:12:00,83.2,58.0,30.20,SSW,211,2.0,8.0,43,0.00,,,0.00,weatherlink.com 1.10,2015-05-24 18:12:00,
2015-05-24 14:27:00,83.9,58.0,30.20,SW,228,5.0,10.0,42,0.00,,,0.00,weatherlink.com 1.10,2015-05-24 18:27:00,
2015-05-24 14:42:00,83.9,59.0,30.19,South,177,3.0,6.0,43,0.00,,,0.00,weatherlink.com 1.10,2015-05-24 18:42:00,
2015-05-24 14:57:00,85.1,59.0,30.19,West,281,0.0,10.0,41,0.00,,,0.00,weatherlink.com 1.10,2015-05-24 18:57:00,
2015-05-24 15:12:00,85.2,59.0,30.18,SW,228,2.0,10.0,41,0.00,,,0.00,weatherlink.com 1.10,2015-05-24 19:12:00,
2015-05-24 15:27:00,85.8,59.0,30.18,South,181,1.0,7.0,41,0.00,,,0.00,weatherlink.com 1.10,2015-05-24 19:27:00,
2015-05-24 15:42:00,85.8,59.0,30.17,SSE,159,1.0,13.0,40,0.00,,,0.00,weatherlink.com 1.10,2015-05-24 19:42:00,
2015-05-24 15:58:00,86.4,59.0,30.17,SSW,207,3.0,10.0,39,0.00,,,0.00,weatherlink.com 1.10,2015-05-24 19:58:00,
2015-05-24 16:13:00,86.2,58.0,30.16,SSW,208,1.0,13.0,39,0.00,,,0.00,weatherlink.com 1.10,2015-05-24 20:13:00,
2015-05-24 16:28:00,86.1,58.0,30.16,SW,229,6.0,10.0,38,0.00,,,0.00,weatherlink.com 1.10,2015-05-24 20:28:00,
2015-05-24 16:43:00,86.2,58.0,30.15,SW,222,6.0,13.0,39,0.00,,,0.00,weatherlink.com 1.10,2015-05-24 20:43:00,
2015-05-24 16:58:00,86.2,59.0,30.14,WSW,245,1.0,8.0,40,0.00,,,0.00,weatherlink.com 1.10,2015-05-24 20:58:00,
2015-05-24 17:13:00,85.7,59.0,30.14,SSW,201,4.0,11.0,40,0.00,,,0.00,weatherlink.com 1.10,2015-05-24 21:13:00,
2015-05-24 17:28:00,86.1,58.0,30.13,South,181,1.0,7.0,38,0.00,,,0.00,weatherlink.com 1.10,2015-05-24 21:28:00,
2015-05-24 17:43:00,86.6,58.0,30.13,South,175,3.0,7.0,38,0.00,,,0.00,weatherlink.com 1.10,2015-05-24 21:43:00,
2015-05-24 17:58:00,86.9,59.0,30.13,SE,146,2.0,6.0,39,0.00,,,0.00,weatherlink.com 1.10,2015-05-24 21:58:00,
2015-05-24 18:13:00,86.0,58.0,30.12,SW,225,5.0,10.0,39,0.00,,,0.00,weatherlink.com 1.10,2015-05-24 22:13:00,
2015-05-24 18:28:00,85.5,58.0,30.11,SW,219,8.0,11.0,39,0.00,,,0.00,weatherlink.com 1.10,2015-05-24 22:28:00,
2015-05-24 18:43:00,85.5,59.0,30.11,SW,219,5.0,10.0,40,0.00,,,0.00,weatherlink.com 1.10,2015-05-24 22:43:00,
2015-05-24 18:58:00,85.3,58.0,30.10,SSW,200,1.0,5.0,39,0.00,,,0.00,weatherlink.com 1.10,2015-05-24 22:58:00,
2015-05-24 19:13:00,83.7,58.0,30.10,SSE,160,0.0,6.0,41,0.00,,,0.00,weatherlink.com 1.10,2015-05-24 23:13:00,
2015-05-24 19:28:00,82.8,57.0,30.10,SSE,166,4.0,5.0,42,0.00,,,0.00,weatherlink.com 1.10,2015-05-24 23:28:00,
2015-05-24 19:43:00,82.1,58.0,30.09,SSE,165,1.0,5.0,44,0.00,,,0.00,weatherlink.com 1.10,2015-05-24 23:43:00,
2015-05-24 19:58:00,81.6,56.0,30.10,SE,130,6.0,11.0,42,0.00,,,0.00,weatherlink.com 1.10,2015-05-24 23:58:00,
2015-05-24 20:13:00,81.1,56.0,30.10,SE,141,2.0,5.0,42,0.00,,,0.00,weatherlink.com 1.10,2015-05-25 00:13:00,
2015-05-24 20:28:00,80.4,56.0,30.11,SSE,160,0.0,4.0,43,0.00,,,0.00,weatherlink.com 1.10,2015-05-25 00:28:00,